createdAt,value
2022-08-17T00:00:34.907Z,18.84
2022-08-17T00:01:51.912Z,18.84
2022-08-17T00:03:19.954Z,18.81
2022-08-17T00:04:23.888Z,18.85
2022-08-17T00:05:26.864Z,18.79
2022-08-17T00:06:29.636Z,18.86
2022-08-17T00:07:31.599Z,18.87
2022-08-17T00:08:36.718Z,18.88
2022-08-17T00:09:38.368Z,18.80
2022-08-17T00:10:41.149Z,18.76
2022-08-17T00:12:41.140Z,18.80
2022-08-17T00:13:15.280Z,18.75
2022-08-17T00:14:18.943Z,18.67
2022-08-17T00:15:21.524Z,18.67
2022-08-17T00:16:50.510Z,18.55
2022-08-17T00:17:53.198Z,18.59
2022-08-17T00:19:08.055Z,18.57
2022-08-17T00:20:11.990Z,18.55
2022-08-17T00:21:16.045Z,18.53
2022-08-17T00:22:34.159Z,18.50
2022-08-17T00:23:44.337Z,18.47
2022-08-17T00:24:51.254Z,18.39
2022-08-17T00:25:53.689Z,18.27
2022-08-17T00:26:55.301Z,18.35
2022-08-17T00:27:56.816Z,18.32
2022-08-17T00:28:59.951Z,18.22
2022-08-17T00:30:01.690Z,18.21
2022-08-17T00:31:03.740Z,18.27
2022-08-17T00:33:16.005Z,18.23
2022-08-17T00:33:29.870Z,18.28
2022-08-17T00:34:31.889Z,18.26
2022-08-17T00:35:35.245Z,18.12
2022-08-17T00:36:37.110Z,18.24
2022-08-17T00:37:39.126Z,18.18
2022-08-17T00:38:41.206Z,18.20
2022-08-17T00:39:42.751Z,18.14
2022-08-17T00:40:48.289Z,18.19
2022-08-17T00:41:49.870Z,18.18
2022-08-17T00:42:51.957Z,18.16
2022-08-17T00:43:54.030Z,18.17
2022-08-17T00:44:55.589Z,18.14
2022-08-17T00:45:59.163Z,18.13
2022-08-17T00:47:00.959Z,18.09
2022-08-17T00:48:02.722Z,18.11
2022-08-17T00:49:05.877Z,18.10
2022-08-17T00:50:10.221Z,18.07
2022-08-17T00:51:18.776Z,18.05
2022-08-17T00:52:25.671Z,18.05
2022-08-17T00:53:30.120Z,17.96
2022-08-17T00:54:41.726Z,17.73
2022-08-17T00:55:44.257Z,17.98
2022-08-17T00:56:51.712Z,17.94
2022-08-17T00:57:57.786Z,17.97
2022-08-17T00:59:00.533Z,17.97
2022-08-17T01:00:11.294Z,17.97
2022-08-17T01:01:21.339Z,17.94
2022-08-17T01:02:24.172Z,17.89
2022-08-17T01:03:26.222Z,17.93
2022-08-17T01:04:29.958Z,17.94
2022-08-17T01:05:33.413Z,17.96
2022-08-17T01:06:35.087Z,17.90
2022-08-17T01:07:37.889Z,17.90
2022-08-17T01:08:40.617Z,17.76
2022-08-17T01:09:43.981Z,17.86
2022-08-17T01:10:57.555Z,17.88
2022-08-17T01:12:06.153Z,17.82
2022-08-17T01:13:12.171Z,17.86
2022-08-17T01:14:14.475Z,17.87
2022-08-17T01:15:16.416Z,17.88
2022-08-17T01:16:20.523Z,17.89
2022-08-17T01:17:22.105Z,17.85
2022-08-17T01:18:26.241Z,17.83
2022-08-17T01:19:31.622Z,17.83
2022-08-17T01:20:41.855Z,17.74
2022-08-17T01:22:11.509Z,17.87
2022-08-17T01:23:18.469Z,17.86
2022-08-17T01:24:23.090Z,17.88
2022-08-17T01:25:24.993Z,17.89
2022-08-17T01:26:28.332Z,17.89
2022-08-17T01:27:30.991Z,17.91
2022-08-17T01:28:54.372Z,17.91
2022-08-17T01:30:05.042Z,17.88
2022-08-17T01:31:30.896Z,17.88
2022-08-17T01:32:33.480Z,17.92
2022-08-17T01:33:35.854Z,17.85
2022-08-17T01:34:43.502Z,17.90
2022-08-17T01:35:51.551Z,17.95
2022-08-17T01:36:54.148Z,17.94
2022-08-17T01:37:55.716Z,17.98
2022-08-17T01:38:57.286Z,17.94
2022-08-17T01:40:06.528Z,18.05
2022-08-17T01:41:12.561Z,18.10
2022-08-17T01:42:26.323Z,18.12
2022-08-17T01:43:38.953Z,18.13
2022-08-17T01:44:40.895Z,18.20
2022-08-17T01:45:46.050Z,18.19
2022-08-17T01:46:47.687Z,18.24
2022-08-17T01:47:50.988Z,18.20
2022-08-17T01:48:53.973Z,18.30
2022-08-17T01:49:56.423Z,18.44
2022-08-17T01:50:58.149Z,18.45
2022-08-17T01:52:06.568Z,18.49
2022-08-17T01:53:13.444Z,18.52
2022-08-17T01:54:17.322Z,18.55
2022-08-17T01:55:27.446Z,18.54
2022-08-17T01:56:30.913Z,18.48
2022-08-17T01:57:32.444Z,18.48
2022-08-17T01:58:36.238Z,18.49
2022-08-17T01:59:37.788Z,18.49
2022-08-17T02:00:59.704Z,18.55
2022-08-17T02:02:04.954Z,18.51
2022-08-17T02:03:07.823Z,18.54
2022-08-17T02:04:09.525Z,18.62
2022-08-17T02:05:12.385Z,18.69
2022-08-17T02:06:27.864Z,18.79
2022-08-17T02:07:30.200Z,18.82
2022-08-17T02:08:37.366Z,18.94
2022-08-17T02:09:41.428Z,19.01
2022-08-17T02:10:46.845Z,19.09
2022-08-17T02:11:48.729Z,19.22
2022-08-17T02:12:51.978Z,19.28
2022-08-17T02:13:57.780Z,19.39
2022-08-17T02:15:06.658Z,19.50
2022-08-17T02:16:08.210Z,19.53
2022-08-17T02:17:09.733Z,19.56
2022-08-17T02:18:13.443Z,19.56
2022-08-17T02:19:16.365Z,19.65
2022-08-17T02:20:18.269Z,19.73
2022-08-17T02:21:41.628Z,19.79
2022-08-17T02:22:45.806Z,19.81
2022-08-17T02:23:49.942Z,19.88
2022-08-17T02:24:58.588Z,19.88
2022-08-17T02:26:01.555Z,20.00
2022-08-17T02:27:03.808Z,19.98
2022-08-17T02:28:05.419Z,19.97
2022-08-17T02:29:07.296Z,20.01
2022-08-17T02:30:59.128Z,20.01
2022-08-17T02:31:33.463Z,19.91
2022-08-17T02:32:35.017Z,19.95
2022-08-17T02:33:42.999Z,19.93
2022-08-17T02:34:45.215Z,19.91
2022-08-17T02:35:47.256Z,19.93
2022-08-17T02:36:48.892Z,19.89
2022-08-17T02:37:51.809Z,19.88
2022-08-17T02:38:58.503Z,19.92
2022-08-17T02:40:00.520Z,19.99
2022-08-17T02:41:02.216Z,20.08
2022-08-17T02:42:04.265Z,20.14
2022-08-17T02:43:07.336Z,20.07
2022-08-17T02:44:08.930Z,20.03
2022-08-17T02:45:22.958Z,20.08
2022-08-17T02:46:24.588Z,20.10
2022-08-17T02:47:27.796Z,20.09
2022-08-17T02:48:31.002Z,20.03
2022-08-17T02:49:33.426Z,19.92
2022-08-17T02:50:35.042Z,19.92
2022-08-17T02:51:36.617Z,19.93
2022-08-17T02:52:42.362Z,19.82
2022-08-17T02:53:46.786Z,19.82
2022-08-17T02:54:48.532Z,19.75
2022-08-17T02:55:50.117Z,19.70
2022-08-17T02:56:53.349Z,19.67
2022-08-17T02:57:55.551Z,19.71
2022-08-17T02:58:57.246Z,19.73
2022-08-17T02:59:58.786Z,19.79
2022-08-17T03:01:00.491Z,19.87
2022-08-17T03:02:04.071Z,19.82
2022-08-17T03:03:06.948Z,19.80
2022-08-17T03:04:08.539Z,19.84
2022-08-17T03:05:13.445Z,19.77
2022-08-17T03:06:15.017Z,19.74
2022-08-17T03:07:16.767Z,19.75
2022-08-17T03:08:18.768Z,19.69
2022-08-17T03:09:20.287Z,19.53
2022-08-17T03:10:22.563Z,19.55
2022-08-17T03:11:24.161Z,19.73
2022-08-17T03:12:28.999Z,19.95
2022-08-17T03:13:30.912Z,19.96
2022-08-17T03:14:32.694Z,19.95
2022-08-17T03:15:34.962Z,19.94
2022-08-17T03:16:36.572Z,19.83
2022-08-17T03:17:38.129Z,19.89
2022-08-17T03:18:39.685Z,19.86
2022-08-17T03:19:43.029Z,19.71
2022-08-17T03:20:44.959Z,19.70
2022-08-17T03:21:46.453Z,19.71
2022-08-17T03:23:02.961Z,19.77
2022-08-17T03:24:08.734Z,19.67
2022-08-17T03:25:14.250Z,19.68
2022-08-17T03:26:21.195Z,19.77
2022-08-17T03:27:22.991Z,19.78
2022-08-17T03:28:24.919Z,19.80
2022-08-17T03:29:26.674Z,19.83
2022-08-17T03:30:29.609Z,19.84
2022-08-17T03:31:31.470Z,19.84
2022-08-17T03:32:41.448Z,19.72
2022-08-17T03:33:43.050Z,19.83
2022-08-17T03:34:44.587Z,19.83
2022-08-17T03:35:46.497Z,19.87
2022-08-17T03:36:47.989Z,19.90
2022-08-17T03:37:52.440Z,19.80
2022-08-17T03:39:02.596Z,19.83
2022-08-17T03:40:05.165Z,19.85
2022-08-17T03:41:06.987Z,19.88
2022-08-17T03:42:32.003Z,19.95
2022-08-17T03:43:34.760Z,19.93
2022-08-17T03:44:36.336Z,19.88
2022-08-17T03:45:57.700Z,19.91
2022-08-17T03:47:19.547Z,20.01
2022-08-17T03:48:40.453Z,20.02
2022-08-17T03:50:00.483Z,19.94
2022-08-17T03:51:20.969Z,20.04
2022-08-17T03:52:41.009Z,20.04
2022-08-17T03:54:13.055Z,20.02
2022-08-17T03:55:36.060Z,20.00
2022-08-17T03:56:44.353Z,20.02
2022-08-17T03:57:45.898Z,20.06
2022-08-17T03:58:47.967Z,19.92
2022-08-17T03:59:49.867Z,20.07
2022-08-17T04:00:51.668Z,19.99
2022-08-17T04:01:55.385Z,20.06
2022-08-17T04:02:57.533Z,20.09
2022-08-17T04:03:59.190Z,20.14
2022-08-17T04:05:01.170Z,20.12
2022-08-17T04:06:02.694Z,20.13
2022-08-17T04:07:04.697Z,20.15
2022-08-17T04:08:06.774Z,20.10
2022-08-17T04:09:09.203Z,19.91
2022-08-17T04:10:10.838Z,20.02
2022-08-17T04:11:12.580Z,20.04
2022-08-17T04:12:16.472Z,20.10
2022-08-17T04:13:25.006Z,20.05
2022-08-17T04:14:27.394Z,20.00
2022-08-17T04:15:29.423Z,20.08
2022-08-17T04:16:31.871Z,20.06
2022-08-17T04:17:33.543Z,20.06
2022-08-17T04:18:35.272Z,19.99
2022-08-17T04:19:37.032Z,19.94
2022-08-17T04:20:38.719Z,19.88
2022-08-17T04:21:40.905Z,19.98
2022-08-17T04:22:56.598Z,19.98
2022-08-17T04:23:58.769Z,19.90
2022-08-17T04:25:03.892Z,19.97
2022-08-17T04:26:05.554Z,19.86
2022-08-17T04:27:07.141Z,19.89
2022-08-17T04:28:15.978Z,19.94
2022-08-17T04:29:18.539Z,19.90
2022-08-17T04:30:20.258Z,19.86
2022-08-17T04:31:22.840Z,19.92
2022-08-17T04:33:04.056Z,19.96
2022-08-17T04:33:46.050Z,19.94
2022-08-17T04:34:47.564Z,19.88
2022-08-17T04:36:15.865Z,19.93
2022-08-17T04:37:17.453Z,19.91
2022-08-17T04:38:22.397Z,19.89
2022-08-17T04:39:26.172Z,19.95
2022-08-17T04:40:46.937Z,20.06
2022-08-17T04:42:06.865Z,20.05
2022-08-17T04:43:21.196Z,20.06
2022-08-17T04:44:27.256Z,20.06
2022-08-17T04:45:54.855Z,20.07
2022-08-17T04:46:57.581Z,20.05
2022-08-17T04:48:00.622Z,19.83
2022-08-17T04:49:08.390Z,20.09
2022-08-17T04:50:10.010Z,20.11
2022-08-17T04:51:18.004Z,19.78
2022-08-17T04:52:37.483Z,19.99
2022-08-17T04:53:44.221Z,20.14
2022-08-17T04:54:45.784Z,20.12
2022-08-17T04:55:48.400Z,20.19
2022-08-17T04:56:50.046Z,20.19
2022-08-17T04:57:51.586Z,20.18
2022-08-17T04:58:55.784Z,20.17
2022-08-17T04:59:57.271Z,20.17
2022-08-17T05:00:58.897Z,20.19
2022-08-17T05:02:00.510Z,20.33
2022-08-17T05:03:02.066Z,20.25
2022-08-17T05:04:21.061Z,20.25
2022-08-17T05:05:36.773Z,20.28
2022-08-17T05:06:38.762Z,20.40
2022-08-17T05:07:40.285Z,20.41
2022-08-17T05:08:41.975Z,20.43
2022-08-17T05:09:43.512Z,20.21
2022-08-17T05:10:45.940Z,20.45
2022-08-17T05:11:47.986Z,20.31
2022-08-17T05:12:59.667Z,20.56
2022-08-17T05:14:01.482Z,20.54
2022-08-17T05:15:03.238Z,20.55
2022-08-17T05:16:04.946Z,20.59
2022-08-17T05:17:09.621Z,20.61
2022-08-17T05:18:13.589Z,20.64
2022-08-17T05:19:15.207Z,20.71
2022-08-17T05:20:16.853Z,20.69
2022-08-17T05:21:19.775Z,20.58
2022-08-17T05:22:21.319Z,20.78
2022-08-17T05:23:25.915Z,20.81
2022-08-17T05:24:39.043Z,20.75
2022-08-17T05:25:51.376Z,20.93
2022-08-17T05:26:53.360Z,21.00
2022-08-17T05:27:57.913Z,21.03
2022-08-17T05:29:02.579Z,20.95
2022-08-17T05:30:05.160Z,21.08
2022-08-17T05:31:06.881Z,21.20
2022-08-17T05:32:37.975Z,21.24
2022-08-17T05:33:41.444Z,21.25
2022-08-17T05:34:45.554Z,21.24
2022-08-17T05:35:49.349Z,21.20
2022-08-17T05:36:50.950Z,21.16
2022-08-17T05:37:53.530Z,21.16
2022-08-17T05:38:58.679Z,21.19
2022-08-17T05:40:00.411Z,21.20
2022-08-17T05:41:04.715Z,21.40
2022-08-17T05:42:06.487Z,21.37
2022-08-17T05:43:14.805Z,21.54
2022-08-17T05:44:16.975Z,21.63
2022-08-17T05:45:39.994Z,21.71
2022-08-17T05:46:48.894Z,21.68
2022-08-17T05:47:51.134Z,21.73
2022-08-17T05:49:01.445Z,21.52
2022-08-17T05:50:03.980Z,21.72
2022-08-17T05:51:28.720Z,21.87
2022-08-17T05:52:47.796Z,21.93
2022-08-17T05:54:13.955Z,22.01
2022-08-17T05:55:30.839Z,22.09
2022-08-17T05:56:57.401Z,22.15
2022-08-17T05:58:27.865Z,22.18
2022-08-17T05:59:42.084Z,22.23
2022-08-17T06:01:04.154Z,22.18
2022-08-17T06:02:19.181Z,22.14
2022-08-17T06:03:39.304Z,22.16
2022-08-17T06:05:05.026Z,22.13
2022-08-17T06:06:31.759Z,22.09
2022-08-17T06:08:00.403Z,22.00
2022-08-17T06:09:31.527Z,21.88
2022-08-17T06:10:47.734Z,21.75
2022-08-17T06:12:03.452Z,21.54
2022-08-17T06:13:20.370Z,21.57
2022-08-17T06:14:33.562Z,21.50
2022-08-17T06:15:49.972Z,21.39
2022-08-17T06:16:58.681Z,21.17
2022-08-17T06:18:04.442Z,21.22
2022-08-17T06:19:11.210Z,21.15
2022-08-17T06:20:15.728Z,21.09
2022-08-17T06:21:19.686Z,21.12
2022-08-17T06:22:33.308Z,21.15
2022-08-17T06:23:40.669Z,21.09
2022-08-17T06:24:54.175Z,21.08
2022-08-17T06:26:00.164Z,21.01
2022-08-17T06:27:27.009Z,21.07
2022-08-17T06:28:37.398Z,20.98
2022-08-17T06:30:00.557Z,20.85
2022-08-17T06:31:17.108Z,20.86
2022-08-17T06:32:19.065Z,20.95
2022-08-17T06:33:32.191Z,20.91
2022-08-17T06:34:34.105Z,20.92
2022-08-17T06:35:48.320Z,21.04
2022-08-17T06:37:06.449Z,21.05
2022-08-17T06:39:02.032Z,21.22
2022-08-17T06:40:38.398Z,21.28
2022-08-17T06:43:02.173Z,21.31
2022-08-17T06:44:43.734Z,21.37
2022-08-17T06:46:01.724Z,21.25
2022-08-17T06:47:15.664Z,21.28
2022-08-17T06:48:46.917Z,21.45
2022-08-17T06:50:03.518Z,21.47
2022-08-17T06:51:18.922Z,21.44
2022-08-17T06:52:46.144Z,21.49
2022-08-17T06:53:54.800Z,21.56
2022-08-17T06:54:56.276Z,21.59
2022-08-17T06:56:10.073Z,21.51
2022-08-17T06:57:31.649Z,21.56
2022-08-17T06:58:35.665Z,21.59
2022-08-17T06:59:55.428Z,21.61
2022-08-17T07:01:16.661Z,21.59
2022-08-17T07:02:51.586Z,21.54
2022-08-17T07:04:12.022Z,21.35
2022-08-17T07:05:17.497Z,21.51
2022-08-17T07:06:22.178Z,21.42
2022-08-17T07:07:42.616Z,21.41
2022-08-17T07:08:53.451Z,21.69
2022-08-17T07:09:58.957Z,21.78
2022-08-17T07:11:15.488Z,21.88
2022-08-17T07:12:24.570Z,21.91
2022-08-17T07:13:26.091Z,22.14
2022-08-17T07:14:31.679Z,22.26
2022-08-17T07:15:45.321Z,22.45
2022-08-17T07:16:51.602Z,22.59
2022-08-17T07:17:53.241Z,22.80
2022-08-17T07:18:57.331Z,22.84
2022-08-17T07:20:08.662Z,23.18
2022-08-17T07:21:28.288Z,23.32
2022-08-17T07:22:50.312Z,23.41
2022-08-17T07:24:26.220Z,23.47
2022-08-17T07:25:32.459Z,23.53
2022-08-17T07:26:34.193Z,23.39
2022-08-17T07:27:41.904Z,23.62
2022-08-17T07:28:44.715Z,23.56
2022-08-17T07:30:01.069Z,23.38
2022-08-17T07:31:04.669Z,23.36
2022-08-17T07:32:08.290Z,23.31
2022-08-17T07:33:25.720Z,23.11
2022-08-17T07:34:27.279Z,23.11
2022-08-17T07:35:37.955Z,23.01
2022-08-17T07:36:43.187Z,22.95
2022-08-17T07:38:05.657Z,22.92
2022-08-17T07:39:28.117Z,22.94
2022-08-17T07:41:06.232Z,22.87
2022-08-17T07:42:10.267Z,22.74
2022-08-17T07:43:18.829Z,22.67
2022-08-17T07:44:23.991Z,22.62
2022-08-17T07:45:44.274Z,22.58
2022-08-17T07:47:10.486Z,22.45
2022-08-17T07:48:24.560Z,22.51
2022-08-17T07:49:32.300Z,22.47
2022-08-17T07:50:33.865Z,22.25
2022-08-17T07:51:45.613Z,22.31
2022-08-17T07:52:50.295Z,22.28
2022-08-17T07:54:13.476Z,22.20
2022-08-17T07:55:35.956Z,22.08
2022-08-17T07:56:43.626Z,21.70
2022-08-17T07:57:56.150Z,21.91
2022-08-17T07:59:33.201Z,21.80
2022-08-17T08:00:37.131Z,21.68
2022-08-17T08:01:42.548Z,21.62
2022-08-17T08:02:47.790Z,21.46
2022-08-17T08:03:52.563Z,21.30
2022-08-17T08:05:06.784Z,21.39
2022-08-17T08:06:23.114Z,21.28
2022-08-17T08:07:32.650Z,21.22
2022-08-17T08:08:42.254Z,21.16
2022-08-17T08:09:59.308Z,21.11
2022-08-17T08:11:08.311Z,21.10
2022-08-17T08:12:46.268Z,20.98
2022-08-17T08:13:49.890Z,20.83
2022-08-17T08:15:09.223Z,20.86
2022-08-17T08:16:29.113Z,20.86
2022-08-17T08:17:36.462Z,20.82
2022-08-17T08:18:55.971Z,20.87
2022-08-17T08:20:00.535Z,20.80
2022-08-17T08:21:32.005Z,20.86
2022-08-17T08:22:41.104Z,20.65
2022-08-17T08:24:04.308Z,20.61
2022-08-17T08:25:20.915Z,20.98
2022-08-17T08:26:46.555Z,21.02
2022-08-17T08:28:18.549Z,20.95
2022-08-17T08:29:35.596Z,21.16
2022-08-17T08:30:47.070Z,21.21
2022-08-17T08:32:20.868Z,21.23
2022-08-17T08:33:22.524Z,21.27
2022-08-17T08:35:01.827Z,21.25
2022-08-17T08:37:14.545Z,21.29
2022-08-17T08:38:02.134Z,21.19
2022-08-17T08:39:25.896Z,21.30
2022-08-17T08:40:45.450Z,21.31
2022-08-17T08:42:31.280Z,21.39
2022-08-17T08:44:00.978Z,21.39
2022-08-17T08:45:16.736Z,21.39
2022-08-17T08:46:41.841Z,21.31
2022-08-17T08:48:45.813Z,21.43
2022-08-17T08:50:08.053Z,21.38
2022-08-17T08:51:38.186Z,21.54
2022-08-17T08:53:07.013Z,21.53
2022-08-17T08:54:26.631Z,21.74
2022-08-17T08:55:42.463Z,21.79
2022-08-17T08:57:22.256Z,21.82
2022-08-17T08:58:48.289Z,21.87
2022-08-17T09:00:08.659Z,21.87
2022-08-17T09:01:53.494Z,21.73
2022-08-17T09:03:32.412Z,21.66
2022-08-17T09:05:13.777Z,21.49
2022-08-17T09:06:48.685Z,21.17
2022-08-17T09:08:22.087Z,21.13
2022-08-17T09:09:49.570Z,21.06
2022-08-17T09:11:03.830Z,20.61
2022-08-17T09:12:16.870Z,20.80
2022-08-17T09:14:00.058Z,20.74
2022-08-17T09:15:17.611Z,20.76
2022-08-17T09:16:38.533Z,20.66
2022-08-17T09:18:08.520Z,20.89
2022-08-17T09:19:30.445Z,20.66
2022-08-17T09:20:48.093Z,20.47
2022-08-17T09:22:12.028Z,20.55
2022-08-17T09:23:18.202Z,20.70
2022-08-17T09:24:32.042Z,20.89
2022-08-17T09:25:49.809Z,20.98
2022-08-17T09:27:09.108Z,21.21
2022-08-17T09:28:27.763Z,21.42
2022-08-17T09:29:37.978Z,21.55
2022-08-17T09:30:49.597Z,21.68
2022-08-17T09:31:55.857Z,21.79
2022-08-17T09:33:04.631Z,21.85
2022-08-17T09:34:14.030Z,21.90
2022-08-17T09:35:25.100Z,21.88
2022-08-17T09:36:44.023Z,21.78
2022-08-17T09:38:07.334Z,22.05
2022-08-17T09:39:19.284Z,22.03
2022-08-17T09:40:28.874Z,22.19
2022-08-17T09:41:58.698Z,22.25
2022-08-17T09:43:12.177Z,22.34
2022-08-17T09:44:34.985Z,22.42
2022-08-17T09:45:49.441Z,22.47
2022-08-17T09:46:58.854Z,22.53
2022-08-17T09:48:18.190Z,22.61
2022-08-17T09:49:28.296Z,22.66
2022-08-17T09:51:03.791Z,22.69
2022-08-17T09:52:15.222Z,22.83
2022-08-17T09:53:19.720Z,23.00
2022-08-17T09:54:39.923Z,23.12
2022-08-17T09:56:06.842Z,23.13
2022-08-17T09:57:31.116Z,23.21
2022-08-17T09:59:06.696Z,23.19
2022-08-17T10:00:18.781Z,23.56
2022-08-17T10:01:38.425Z,24.00
2022-08-17T10:02:43.008Z,24.23
2022-08-17T10:03:53.762Z,24.09
2022-08-17T10:05:27.336Z,24.28
2022-08-17T10:06:35.492Z,24.17
2022-08-17T10:07:46.539Z,24.41
2022-08-17T10:09:08.194Z,24.73
2022-08-17T10:10:14.385Z,24.67
2022-08-17T10:12:09.313Z,25.05
2022-08-17T10:13:16.545Z,25.48
2022-08-17T10:14:44.387Z,25.70
2022-08-17T10:16:15.596Z,25.64
2022-08-17T10:17:54.506Z,25.64
2022-08-17T10:19:32.837Z,25.71
2022-08-17T10:20:46.575Z,25.40
2022-08-17T10:22:34.508Z,25.39
2022-08-17T10:23:55.959Z,25.51
2022-08-17T10:25:23.974Z,25.57
2022-08-17T10:26:43.081Z,25.63
2022-08-17T10:27:58.704Z,25.77
2022-08-17T10:29:09.681Z,25.74
2022-08-17T10:30:17.368Z,25.75
2022-08-17T10:31:36.450Z,25.31
2022-08-17T10:32:49.633Z,25.22
2022-08-17T10:33:51.152Z,25.31
2022-08-17T10:35:11.257Z,25.44
2022-08-17T10:36:24.042Z,25.67
2022-08-17T10:37:37.635Z,25.88
2022-08-17T10:38:58.871Z,26.07
2022-08-17T10:40:26.378Z,25.92
2022-08-17T10:41:40.074Z,25.88
2022-08-17T10:42:50.797Z,25.67
2022-08-17T10:44:39.280Z,25.66
2022-08-17T10:46:09.527Z,25.71
2022-08-17T10:48:21.487Z,25.71
2022-08-17T10:49:30.502Z,25.67
2022-08-17T10:50:55.983Z,25.68
2022-08-17T10:52:00.577Z,25.44
2022-08-17T10:53:02.332Z,25.41
2022-08-17T10:54:27.324Z,25.43
2022-08-17T10:55:29.139Z,25.50
2022-08-17T10:56:50.912Z,25.55
2022-08-17T10:58:20.896Z,25.73
2022-08-17T10:59:34.547Z,25.88
2022-08-17T11:00:42.423Z,25.98
2022-08-17T11:02:04.119Z,26.27
2022-08-17T11:03:21.034Z,26.56
2022-08-17T11:04:47.774Z,26.70
2022-08-17T11:05:53.973Z,26.89
2022-08-17T11:07:23.600Z,26.71
2022-08-17T11:08:43.806Z,26.73
2022-08-17T11:10:33.381Z,26.94
2022-08-17T11:11:52.439Z,27.11
2022-08-17T11:13:14.013Z,27.22
2022-08-17T11:14:41.183Z,27.09
2022-08-17T11:16:30.509Z,26.91
2022-08-17T11:17:58.200Z,27.30
2022-08-17T11:19:26.453Z,27.50
2022-08-17T11:20:45.414Z,27.77
2022-08-17T11:22:02.079Z,27.88
2022-08-17T11:23:25.845Z,28.10
2022-08-17T11:24:43.473Z,28.26
2022-08-17T11:25:56.402Z,28.24
2022-08-17T11:27:08.766Z,27.81
2022-08-17T11:28:18.421Z,27.59
2022-08-17T11:29:27.474Z,27.55
2022-08-17T11:30:48.521Z,27.35
2022-08-17T11:32:01.989Z,27.39
2022-08-17T11:33:30.516Z,27.24
2022-08-17T11:34:34.777Z,27.10
2022-08-17T11:35:48.092Z,26.95
2022-08-17T11:37:02.540Z,26.84
2022-08-17T11:38:30.496Z,26.57
2022-08-17T11:39:53.831Z,26.38
2022-08-17T11:41:07.561Z,26.34
2022-08-17T11:42:27.597Z,26.15
2022-08-17T11:43:55.525Z,26.21
2022-08-17T11:45:03.121Z,26.29
2022-08-17T11:46:45.890Z,26.34
2022-08-17T11:48:28.157Z,26.46
2022-08-17T11:50:25.770Z,26.67
2022-08-17T11:52:04.833Z,26.69
2022-08-17T11:53:27.372Z,26.67
2022-08-17T11:54:48.799Z,26.90
2022-08-17T11:55:53.411Z,27.03
2022-08-17T11:56:55.043Z,27.24
2022-08-17T11:58:37.232Z,27.66
2022-08-17T11:59:40.002Z,27.87
2022-08-17T12:00:56.545Z,28.34
2022-08-17T12:02:00.010Z,28.67
2022-08-17T12:03:22.435Z,29.00
2022-08-17T12:04:29.814Z,29.63
2022-08-17T12:05:32.987Z,30.34
2022-08-17T12:06:45.417Z,30.61
2022-08-17T12:08:10.799Z,31.59
2022-08-17T12:09:19.933Z,32.18
2022-08-17T12:10:31.680Z,32.76
2022-08-17T12:11:55.661Z,33.92
2022-08-17T12:13:16.837Z,34.95
2022-08-17T12:14:45.049Z,35.36
2022-08-17T12:15:52.758Z,35.84
2022-08-17T12:17:05.529Z,36.09
2022-08-17T12:18:07.087Z,36.82
2022-08-17T12:19:19.351Z,36.78
2022-08-17T12:20:32.182Z,35.95
2022-08-17T12:21:46.257Z,35.63
2022-08-17T12:23:04.111Z,36.54
2022-08-17T12:24:23.139Z,37.72
2022-08-17T12:25:35.879Z,38.15
2022-08-17T12:26:37.728Z,38.02
2022-08-17T12:28:05.362Z,37.75
2022-08-17T12:29:18.271Z,38.88
2022-08-17T12:30:37.921Z,39.29
2022-08-17T12:31:47.143Z,39.43
2022-08-17T12:32:50.021Z,39.31
2022-08-17T12:33:51.931Z,39.31
2022-08-17T12:34:53.879Z,38.95
2022-08-17T12:36:00.122Z,38.50
2022-08-17T12:37:07.079Z,38.25
2022-08-17T12:38:32.805Z,38.79
2022-08-17T12:39:34.031Z,38.75
2022-08-17T12:40:36.307Z,38.79
2022-08-17T12:41:40.863Z,38.68
2022-08-17T12:43:04.113Z,38.16
2022-08-17T12:44:15.128Z,38.13
2022-08-17T12:45:27.439Z,38.27
2022-08-17T12:46:45.626Z,37.93
2022-08-17T12:47:47.285Z,38.50
2022-08-17T12:48:58.914Z,38.57
2022-08-17T12:50:28.783Z,38.21
2022-08-17T12:51:31.840Z,38.05
2022-08-17T12:52:39.655Z,38.45
2022-08-17T12:53:49.458Z,38.41
2022-08-17T12:54:53.538Z,38.28
2022-08-17T12:55:57.294Z,37.75
2022-08-17T12:57:05.614Z,37.61
2022-08-17T12:58:14.348Z,37.60
2022-08-17T12:59:29.773Z,37.11
2022-08-17T13:00:38.180Z,36.07
2022-08-17T13:01:42.110Z,35.44
2022-08-17T13:02:50.870Z,35.03
2022-08-17T13:03:57.182Z,34.99
2022-08-17T13:05:01.259Z,34.56
2022-08-17T13:06:07.354Z,34.41
2022-08-17T13:07:08.946Z,34.15
2022-08-17T13:08:25.554Z,34.11
2022-08-17T13:09:35.732Z,34.00
2022-08-17T13:10:53.609Z,33.94
2022-08-17T13:12:01.986Z,34.11
2022-08-17T13:13:22.680Z,33.82
2022-08-17T13:14:24.412Z,33.79
2022-08-17T13:15:32.399Z,33.89
2022-08-17T13:16:34.100Z,33.97
2022-08-17T13:17:36.648Z,33.82
2022-08-17T13:18:41.468Z,33.76
2022-08-17T13:19:52.133Z,33.70
2022-08-17T13:20:57.178Z,33.65
2022-08-17T13:22:01.404Z,32.92
2022-08-17T13:23:11.937Z,32.75
2022-08-17T13:24:29.765Z,33.15
2022-08-17T13:25:40.298Z,33.29
2022-08-17T13:26:47.059Z,33.38
2022-08-17T13:27:52.362Z,33.61
2022-08-17T13:28:54.523Z,33.60
2022-08-17T13:30:02.390Z,34.09
2022-08-17T13:31:32.982Z,34.56
2022-08-17T13:32:47.129Z,34.85
2022-08-17T13:33:50.488Z,34.42
2022-08-17T13:35:14.397Z,34.40
2022-08-17T13:36:30.434Z,33.37
2022-08-17T13:37:35.414Z,32.80
2022-08-17T13:38:47.919Z,33.87
2022-08-17T13:39:49.508Z,34.50
2022-08-17T13:40:53.174Z,34.83
2022-08-17T13:41:58.001Z,35.12
2022-08-17T13:42:59.664Z,34.98
2022-08-17T13:44:01.363Z,34.96
2022-08-17T13:45:35.255Z,34.75
2022-08-17T13:46:31.289Z,34.76
2022-08-17T13:47:33.205Z,34.71
2022-08-17T13:48:34.926Z,34.72
2022-08-17T13:49:48.230Z,34.45
2022-08-17T13:50:56.444Z,34.66
2022-08-17T13:51:58.349Z,34.60
2022-08-17T13:53:00.215Z,34.53
2022-08-17T13:54:06.401Z,34.51
2022-08-17T13:55:20.975Z,34.76
2022-08-17T13:56:46.974Z,34.90
2022-08-17T13:58:06.749Z,34.97
2022-08-17T13:59:12.644Z,34.52
2022-08-17T14:00:29.839Z,34.81
2022-08-17T14:01:52.836Z,35.22
2022-08-17T14:02:57.520Z,35.42
2022-08-17T14:04:00.518Z,35.13
2022-08-17T14:05:02.198Z,34.93
2022-08-17T14:06:07.978Z,34.52
2022-08-17T14:07:12.942Z,34.43
2022-08-17T14:08:16.827Z,34.04
2022-08-17T14:09:20.068Z,33.84
2022-08-17T14:10:23.192Z,33.76
2022-08-17T14:11:24.932Z,33.61
2022-08-17T14:12:30.126Z,33.42
2022-08-17T14:13:32.278Z,33.10
2022-08-17T14:14:34.160Z,33.01
2022-08-17T14:15:55.133Z,33.09
2022-08-17T14:16:57.814Z,33.26
2022-08-17T14:17:59.575Z,33.47
2022-08-17T14:19:03.318Z,33.76
2022-08-17T14:20:07.405Z,34.05
2022-08-17T14:21:10.017Z,34.20
2022-08-17T14:22:19.389Z,34.57
2022-08-17T14:23:20.987Z,35.16
2022-08-17T14:24:29.026Z,36.01
2022-08-17T14:25:30.688Z,36.72
2022-08-17T14:26:33.033Z,37.20
2022-08-17T14:27:51.776Z,37.68
2022-08-17T14:28:56.830Z,37.82
2022-08-17T14:29:58.638Z,38.02
2022-08-17T14:31:01.099Z,38.02
2022-08-17T14:32:11.431Z,37.55
2022-08-17T14:33:14.317Z,37.16
2022-08-17T14:34:16.003Z,37.48
2022-08-17T14:35:18.969Z,37.80
2022-08-17T14:36:20.802Z,38.24
2022-08-17T14:37:26.297Z,38.36
2022-08-17T14:38:28.016Z,38.35
2022-08-17T14:39:29.778Z,38.52
2022-08-17T14:40:31.946Z,38.05
2022-08-17T14:41:33.566Z,38.25
2022-08-17T14:42:37.380Z,38.52
2022-08-17T14:43:39.871Z,38.55
2022-08-17T14:44:41.476Z,38.05
2022-08-17T14:45:43.896Z,36.10
2022-08-17T14:46:45.448Z,34.74
2022-08-17T14:47:47.139Z,34.23
2022-08-17T14:48:57.176Z,34.23
2022-08-17T14:50:01.152Z,34.29
2022-08-17T14:51:04.798Z,34.42
2022-08-17T14:52:06.555Z,34.72
2022-08-17T14:53:11.039Z,34.59
2022-08-17T14:54:33.052Z,34.23
2022-08-17T14:55:39.659Z,33.95
2022-08-17T14:56:41.226Z,33.80
2022-08-17T14:57:47.050Z,33.79
2022-08-17T14:58:49.091Z,33.64
2022-08-17T14:59:54.581Z,33.70
2022-08-17T15:00:57.598Z,33.77
2022-08-17T15:02:00.275Z,33.80
2022-08-17T15:03:02.823Z,33.76
2022-08-17T15:04:04.557Z,33.66
2022-08-17T15:05:07.108Z,33.30
2022-08-17T15:06:10.597Z,32.84
2022-08-17T15:07:12.202Z,32.74
2022-08-17T15:08:13.862Z,32.72
2022-08-17T15:09:16.907Z,32.81
2022-08-17T15:10:19.841Z,32.77
2022-08-17T15:11:21.461Z,32.51
2022-08-17T15:12:27.503Z,32.21
2022-08-17T15:13:33.665Z,32.22
2022-08-17T15:14:36.215Z,32.43
2022-08-17T15:15:37.873Z,32.62